Time;durP1;ratioP1;P1;durP2;ratioP2;P2;SDS_P1;SDS_P2;PMS_P1;PMS_P2;Temp;Humidity;BMP_temperature;BMP_pressure;BME280_temperature;BME280_humidity;BME280_pressure;Samples;Min_cycle;Max_cycle;Signal;HPM_P1;HPM_P2
2023/12/20 00:00:57;;;;;;;211.13;196.98;;;6.60;99.90;;;;;;12417687;28;20079;-35
2023/12/20 00:06:59;;;;;;;216.30;201.70;;;6.60;99.90;;;;;;12374944;28;20062;-35
2023/12/20 00:13:01;;;;;;;219.35;204.45;;;6.50;99.90;;;;;;12399069;28;20138;-35
2023/12/20 00:19:03;;;;;;;178.35;165.65;;;6.50;99.90;;;;;;12410341;28;20104;-35
2023/12/20 00:25:05;;;;;;;167.13;154.65;;;6.50;99.90;;;;;;12408854;28;20047;-35
2023/12/20 00:31:07;;;;;;;155.23;144.02;;;6.50;99.90;;;;;;12415691;28;20053;-35
2023/12/20 00:37:09;;;;;;;152.27;141.27;;;6.50;99.90;;;;;;12458796;28;20052;-35
2023/12/20 00:43:11;;;;;;;146.13;135.73;;;6.40;99.90;;;;;;12344621;28;20130;-35
2023/12/20 00:49:13;;;;;;;150.15;138.98;;;6.40;99.90;;;;;;12346841;28;20058;-35
2023/12/20 00:55:14;;;;;;;151.85;140.85;;;6.40;99.90;;;;;;12385913;28;20044;-36
2023/12/20 01:01:17;;;;;;;139.85;129.75;;;6.40;99.90;;;;;;12390355;28;20119;-36
2023/12/20 01:07:19;;;;;;;137.75;127.63;;;6.50;99.90;;;;;;12372170;28;20412;-35
2023/12/20 01:13:21;;;;;;;127.72;118.63;;;6.40;99.90;;;;;;12358942;28;20048;-35
2023/12/20 01:19:24;;;;;;;125.20;116.18;;;6.40;99.90;;;;;;12465101;28;20043;-35
2023/12/20 01:25:26;;;;;;;126.63;117.47;;;6.40;99.90;;;;;;12330209;28;20425;-35
2023/12/20 01:31:29;;;;;;;113.35;105.05;;;6.30;99.90;;;;;;12331874;28;20058;-35
2023/12/20 01:37:31;;;;;;;116.72;107.97;;;6.20;99.90;;;;;;12361198;28;20171;-35
2023/12/20 01:43:33;;;;;;;116.75;108.35;;;6.30;99.90;;;;;;12397991;28;20090;-35
2023/12/20 01:49:51;;;;;;;121.75;112.95;;;6.40;99.90;;;;;;12389554;28;20046;-36
2023/12/20 01:55:56;;;;;;;122.20;113.40;;;6.20;99.90;;;;;;12369894;28;20086;-35
2023/12/20 02:01:58;;;;;;;118.32;110.10;;;6.10;99.90;;;;;;12395289;28;20386;-35
2023/12/20 02:08:00;;;;;;;110.68;102.68;;;6.10;99.90;;;;;;12460932;28;20091;-36
2023/12/20 02:14:02;;;;;;;115.28;106.78;;;6.20;99.90;;;;;;12368319;28;20540;-35
2023/12/20 02:20:05;;;;;;;113.13;105.05;;;6.00;99.90;;;;;;12337103;28;20051;-35
2023/12/20 02:26:08;;;;;;;109.57;101.57;;;5.90;99.90;;;;;;12330384;28;20058;-36
2023/12/20 02:32:09;;;;;;;108.47;100.57;;;5.90;99.90;;;;;;12379037;28;20090;-36
2023/12/20 02:38:11;;;;;;;113.05;104.78;;;5.80;99.90;;;;;;12450905;28;20094;-35
2023/12/20 02:44:13;;;;;;;118.63;109.63;;;5.60;99.90;;;;;;12350222;28;20047;-36
2023/12/20 02:50:15;;;;;;;123.53;114.43;;;5.50;99.90;;;;;;12372806;28;20083;-35
2023/12/20 02:56:17;;;;;;;116.50;107.70;;;5.40;99.90;;;;;;12379005;28;20386;-35
2023/12/20 03:02:19;;;;;;;112.13;103.78;;;5.40;99.90;;;;;;12413723;28;20105;-35
2023/12/20 03:08:21;;;;;;;110.80;102.40;;;5.40;99.90;;;;;;12397528;28;20052;-35
2023/12/20 03:14:24;;;;;;;108.80;100.60;;;5.50;99.90;;;;;;12351340;28;20054;-35
2023/12/20 03:20:28;;;;;;;104.38;96.90;;;5.50;99.90;;;;;;12347549;28;20069;-35
2023/12/20 03:26:30;;;;;;;;;;;5.70;99.90;;;;;;12372721;28;20422;-35
2023/12/20 03:32:32;;;;;;;97.75;90.45;;;5.90;99.90;;;;;;12404243;28;20387;-35
2023/12/20 03:38:34;;;;;;;103.30;95.55;;;6.00;99.90;;;;;;12477111;28;20048;-35
2023/12/20 03:44:39;;;;;;;99.63;92.63;;;5.90;99.90;;;;;;12371588;28;20058;-35
2023/12/20 03:50:40;;;;;;;101.13;93.65;;;6.00;99.90;;;;;;12375595;28;20050;-35
2023/12/20 03:56:42;;;;;;;97.72;90.32;;;5.90;99.90;;;;;;12349211;28;20050;-35
2023/12/20 04:02:44;;;;;;;91.95;84.65;;;5.90;99.90;;;;;;12344860;28;20046;-35
2023/12/20 04:08:46;;;;;;;91.72;84.78;;;5.90;99.90;;;;;;12375550;28;20497;-35
2023/12/20 04:14:48;;;;;;;90.10;83.00;;;5.90;99.90;;;;;;12384449;28;20086;-35
2023/12/20 04:20:51;;;;;;;89.80;82.70;;;6.00;99.90;;;;;;12405013;28;20051;-35
2023/12/20 04:26:53;;;;;;;87.95;80.97;;;6.00;99.90;;;;;;12343717;28;20416;-35
2023/12/20 04:32:55;;;;;;;85.43;78.78;;;5.90;99.90;;;;;;12368094;28;20126;-35
2023/12/20 04:38:57;;;;;;;90.38;83.25;;;5.90;99.90;;;;;;12441065;28;20047;-35
2023/12/20 04:44:59;;;;;;;77.70;71.80;;;6.00;99.90;;;;;;12381072;28;20060;-35
2023/12/20 04:51:01;;;;;;;87.72;80.47;;;6.00;99.90;;;;;;12388675;28;20051;-35
2023/12/20 04:57:03;;;;;;;91.38;83.93;;;5.90;99.90;;;;;;12368704;28;20052;-35
2023/12/20 05:03:05;;;;;;;89.03;81.45;;;5.80;99.90;;;;;;12372783;28;20047;-35
2023/12/20 05:09:07;;;;;;;89.15;80.97;;;5.90;99.90;;;;;;12412247;28;20045;-35
2023/12/20 05:15:09;;;;;;;84.57;77.47;;;5.90;99.90;;;;;;12369791;28;20051;-35
2023/12/20 05:21:11;;;;;;;76.95;70.30;;;6.00;99.90;;;;;;12326967;28;20054;-35
2023/12/20 05:27:13;;;;;;;81.28;73.57;;;6.00;99.90;;;;;;12386309;28;20055;-35
2023/12/20 05:33:15;;;;;;;76.47;69.88;;;5.90;99.90;;;;;;12370733;28;20051;-35
2023/12/20 05:39:17;;;;;;;75.97;69.22;;;6.00;99.90;;;;;;12422758;28;20406;-35
2023/12/20 05:45:19;;;;;;;79.07;72.18;;;6.00;99.90;;;;;;12375379;28;20470;-35
2023/12/20 05:51:21;;;;;;;76.25;69.82;;;5.90;99.90;;;;;;12368043;28;20134;-36
2023/12/20 05:57:23;;;;;;;78.50;71.75;;;6.00;99.90;;;;;;12402453;28;20051;-35
2023/12/20 06:03:25;;;;;;;77.53;70.47;;;6.00;99.90;;;;;;12439940;28;20045;-35
2023/12/20 06:09:27;;;;;;;76.15;69.50;;;6.00;99.90;;;;;;12471510;28;20058;-35
2023/12/20 06:15:32;;;;;;;75.80;69.25;;;6.00;99.90;;;;;;12451899;28;20101;-35
2023/12/20 06:21:35;;;;;;;77.32;70.93;;;5.90;99.90;;;;;;12417523;28;20047;-35
2023/12/20 06:27:38;;;;;;;78.40;71.45;;;5.80;99.90;;;;;;12382910;28;20050;-35
2023/12/20 06:33:41;;;;;;;73.18;66.78;;;5.80;99.90;;;;;;12354821;28;20058;-35
2023/12/20 06:39:43;;;;;;;76.43;69.47;;;5.90;99.90;;;;;;12374137;28;20051;-36
2023/12/20 06:45:45;;;;;;;75.57;68.82;;;5.90;99.90;;;;;;12330690;28;20058;-35
2023/12/20 06:51:46;;;;;;;79.65;72.57;;;5.80;99.90;;;;;;12385142;28;20466;-35
2023/12/20 06:57:48;;;;;;;81.40;73.72;;;5.80;99.90;;;;;;12416942;28;20054;-35
2023/12/20 07:03:50;;;;;;;82.63;74.68;;;5.80;99.90;;;;;;12486545;28;20047;-35
2023/12/20 07:09:52;;;;;;;76.15;68.72;;;5.80;99.90;;;;;;12487026;28;20068;-35
2023/12/20 07:15:55;;;;;;;74.97;67.30;;;5.90;99.90;;;;;;12373080;28;20058;-35
2023/12/20 07:21:56;;;;;;;72.90;65.75;;;5.90;99.90;;;;;;12404901;28;20051;-35
2023/12/20 07:27:58;;;;;;;72.70;65.97;;;6.00;99.90;;;;;;12386983;28;20414;-36
2023/12/20 07:34:00;;;;;;;79.25;71.57;;;6.00;99.90;;;;;;12343498;28;20078;-35
2023/12/20 07:40:03;;;;;;;81.47;73.45;;;5.80;99.90;;;;;;12375302;28;20172;-35
2023/12/20 07:46:06;;;;;;;94.43;85.35;;;5.90;99.90;;;;;;12348656;28;20055;-35
2023/12/20 07:52:09;;;;;;;91.95;83.55;;;5.80;99.90;;;;;;12388580;28;20394;-34
2023/12/20 07:58:11;;;;;;;103.65;94.65;;;5.80;99.90;;;;;;12350237;28;20126;-35
2023/12/20 08:04:12;;;;;;;110.47;100.68;;;5.70;99.90;;;;;;12323786;28;20099;-35
2023/12/20 08:10:14;;;;;;;110.65;101.30;;;5.70;99.90;;;;;;12344171;28;20054;-35
2023/12/20 08:16:17;;;;;;;107.13;98.53;;;5.80;99.90;;;;;;12412784;28;20048;-34
2023/12/20 08:22:19;;;;;;;93.32;85.13;;;5.90;99.90;;;;;;12372621;28;20054;-35
2023/12/20 08:28:21;;;;;;;90.43;82.07;;;6.00;99.90;;;;;;12431907;28;20163;-35
2023/12/20 08:34:23;;;;;;;89.78;81.90;;;6.00;99.90;;;;;;12393873;28;20120;-35
2023/12/20 08:40:26;;;;;;;89.82;82.10;;;6.10;99.90;;;;;;12376027;28;20367;-35
2023/12/20 08:46:28;;;;;;;90.07;82.20;;;6.00;99.90;;;;;;12367069;28;20051;-35
2023/12/20 08:52:30;;;;;;;84.13;76.93;;;6.00;99.90;;;;;;12380629;28;20048;-35
2023/12/20 08:58:33;;;;;;;79.40;72.70;;;6.10;99.90;;;;;;12377250;28;20073;-35
2023/12/20 09:04:35;;;;;;;91.00;83.68;;;6.20;99.90;;;;;;12366534;28;20095;-35
2023/12/20 09:10:37;;;;;;;84.60;76.63;;;6.10;99.90;;;;;;12325330;28;21797;-35
2023/12/20 09:16:39;;;;;;;91.55;83.07;;;6.20;99.90;;;;;;12368865;28;20059;-35
2023/12/20 09:22:41;;;;;;;99.32;90.63;;;6.20;99.90;;;;;;12374564;28;20051;-36
2023/12/20 09:28:44;;;;;;;92.10;83.90;;;6.20;99.90;;;;;;12439115;28;21621;-35
2023/12/20 09:34:47;;;;;;;88.78;80.78;;;6.30;99.90;;;;;;12404027;28;20054;-36
2023/12/20 09:40:50;;;;;;;108.30;99.65;;;6.40;99.90;;;;;;12452997;28;20060;-35
2023/12/20 09:46:54;;;;;;;99.57;90.68;;;6.40;99.90;;;;;;12374804;28;20054;-35
2023/12/20 09:52:59;;;;;;;101.53;93.13;;;6.40;99.90;;;;;;12349107;28;20394;-35
2023/12/20 09:59:01;;;;;;;104.45;96.07;;;6.40;99.90;;;;;;12336447;28;20130;-35
2023/12/20 10:05:08;;;;;;;91.85;84.18;;;6.40;99.90;;;;;;12375643;28;20047;-35
2023/12/20 10:11:10;;;;;;;99.60;91.10;;;6.60;99.90;;;;;;12415132;28;20047;-35
2023/12/20 10:17:12;;;;;;;106.65;97.90;;;6.60;99.90;;;;;;12388341;28;20132;-35
2023/12/20 10:23:16;;;;;;;116.63;107.35;;;6.50;99.90;;;;;;12417169;28;20059;-35
2023/12/20 10:29:18;;;;;;;122.70;113.25;;;6.50;99.90;;;;;;12396167;28;20490;-34
2023/12/20 10:35:19;;;;;;;127.93;118.40;;;6.50;99.90;;;;;;12393408;28;20082;-35
2023/12/20 10:41:32;;;;;;;135.20;125.13;;;6.40;99.90;;;;;;12421006;28;20046;-34
2023/12/20 10:47:35;;;;;;;142.07;132.02;;;6.40;99.90;;;;;;12402696;28;20090;-35
2023/12/20 10:53:41;;;;;;;154.55;143.27;;;6.40;99.90;;;;;;12364112;28;20611;-35
2023/12/20 10:59:45;;;;;;;138.63;128.90;;;6.30;99.90;;;;;;12380749;28;20046;-35
2023/12/20 11:06:20;;;;;;;138.57;129.13;;;6.50;99.90;;;;;;12473901;28;20065;-35
2023/12/20 11:12:35;;;;;;;128.23;119.10;;;6.50;99.90;;;;;;12322636;28;20529;-35
2023/12/20 11:18:37;;;;;;;102.68;95.47;;;6.70;99.90;;;;;;12417127;28;20080;-36
2023/12/20 11:24:44;;;;;;;105.03;97.53;;;6.80;99.90;;;;;;12391987;28;20117;-35
2023/12/20 11:30:55;;;;;;;102.93;95.45;;;6.70;99.90;;;;;;12386299;28;20063;-35
2023/12/20 11:36:59;;;;;;;101.32;93.78;;;6.70;99.90;;;;;;12403462;28;20047;-35
2023/12/20 11:43:01;;;;;;;96.30;88.88;;;6.70;99.90;;;;;;12421915;28;20050;-35
2023/12/20 11:49:03;;;;;;;92.78;85.88;;;6.80;99.90;;;;;;12337501;28;20096;-35
2023/12/20 11:55:05;;;;;;;82.30;76.05;;;6.80;99.90;;;;;;12337227;28;20047;-35
2023/12/20 12:01:08;;;;;;;87.68;81.25;;;6.80;99.90;;;;;;12385981;28;20048;-35
2023/12/20 12:07:11;;;;;;;106.15;98.32;;;6.90;99.90;;;;;;12339499;28;20051;-35
2023/12/20 12:13:14;;;;;;;108.65;100.68;;;6.80;99.90;;;;;;12369988;28;20058;-35
2023/12/20 12:19:23;;;;;;;114.25;105.93;;;6.80;99.90;;;;;;12423466;28;20047;-35
2023/12/20 12:25:26;;;;;;;139.55;129.75;;;6.70;99.90;;;;;;12423154;28;20113;-35
2023/12/20 12:31:28;;;;;;;170.65;158.82;;;6.60;99.90;;;;;;12375854;28;20054;-35
2023/12/20 12:37:30;;;;;;;210.27;196.60;;;6.40;99.90;;;;;;12446863;28;20410;-35
2023/12/20 12:43:32;;;;;;;200.73;187.10;;;6.30;99.90;;;;;;12444293;28;20046;-35
2023/12/20 12:49:37;;;;;;;158.48;148.00;;;6.30;99.90;;;;;;12357197;28;20423;-35
2023/12/20 12:55:39;;;;;;;141.95;132.23;;;6.30;99.90;;;;;;12400858;28;20414;-36
2023/12/20 13:01:41;;;;;;;107.05;99.60;;;6.30;99.90;;;;;;12404448;28;20073;-34
2023/12/20 13:07:45;;;;;;;94.22;87.38;;;6.20;99.90;;;;;;12425637;28;20055;-35
2023/12/20 13:19:55;;;;;;;77.90;72.20;;;6.10;99.90;;;;;;12433369;28;20490;-35
2023/12/20 13:25:57;;;;;;;70.97;66.18;;;6.10;99.90;;;;;;12372535;28;20138;-34
2023/12/20 13:31:59;;;;;;;73.38;68.18;;;6.10;99.90;;;;;;12364452;28;20099;-34
2023/12/20 13:38:01;;;;;;;63.92;59.53;;;6.00;99.90;;;;;;12369344;28;20046;-35
2023/12/20 13:44:03;;;;;;;64.60;59.90;;;6.10;99.90;;;;;;12367497;28;20042;-35
2023/12/20 13:50:05;;;;;;;65.55;60.95;;;6.20;99.90;;;;;;12366986;28;20043;-34
2023/12/20 13:56:08;;;;;;;64.53;59.90;;;6.10;99.90;;;;;;12370158;28;20101;-35
2023/12/20 14:02:10;;;;;;;68.75;63.85;;;6.30;99.90;;;;;;12360864;28;20047;-35
2023/12/20 14:08:11;;;;;;;71.90;66.85;;;6.20;99.90;;;;;;12353850;28;20050;-35
2023/12/20 14:14:13;;;;;;;69.50;64.35;;;6.10;99.90;;;;;;12378615;28;20058;-34
2023/12/20 14:20:16;;;;;;;69.65;64.35;;;6.20;99.90;;;;;;12370869;28;20054;-34
2023/12/20 14:26:18;;;;;;;66.70;62.00;;;6.10;99.90;;;;;;12356205;28;20058;-34
2023/12/20 14:32:20;;;;;;;72.25;67.03;;;6.00;99.90;;;;;;12328271;28;20055;-35
2023/12/20 14:38:22;;;;;;;67.35;62.33;;;6.00;99.90;;;;;;12328211;28;20090;-35
2023/12/20 14:44:24;;;;;;;73.88;68.47;;;6.10;99.90;;;;;;12333416;28;20051;-34
2023/12/20 14:50:25;;;;;;;75.82;70.10;;;6.00;99.90;;;;;;12334443;28;20054;-34
2023/12/20 14:56:27;;;;;;;74.60;68.95;;;6.10;99.90;;;;;;12324261;28;20459;-35
2023/12/20 15:02:31;;;;;;;80.03;74.22;;;6.00;99.90;;;;;;12338936;28;20484;-34
2023/12/20 15:08:32;;;;;;;77.00;71.05;;;6.00;99.90;;;;;;12330005;28;20058;-35
2023/12/20 15:14:34;;;;;;;76.25;70.43;;;6.00;99.90;;;;;;12332509;28;20050;-35
2023/12/20 15:20:36;;;;;;;78.88;72.75;;;6.00;99.90;;;;;;12330846;28;20047;-35
2023/12/20 15:26:39;;;;;;;78.57;72.55;;;5.90;99.90;;;;;;12324842;28;20059;-35
2023/12/20 15:32:40;;;;;;;81.72;75.45;;;5.90;99.90;;;;;;12321473;28;20050;-35
2023/12/20 15:38:42;;;;;;;91.82;85.00;;;5.90;99.90;;;;;;12330577;28;20051;-35
2023/12/20 15:44:44;;;;;;;101.43;94.07;;;5.90;99.90;;;;;;12334200;28;20058;-35
2023/12/20 15:50:46;;;;;;;111.15;103.25;;;5.80;99.90;;;;;;12323308;28;20507;-35
2023/12/20 15:56:48;;;;;;;119.15;110.35;;;5.70;99.90;;;;;;12319859;28;20161;-35
2023/12/20 16:02:50;;;;;;;129.07;119.97;;;5.70;99.90;;;;;;12325114;28;20075;-34
2023/12/20 16:08:52;;;;;;;132.07;122.90;;;5.70;99.90;;;;;;12327338;28;20502;-35
2023/12/20 16:14:53;;;;;;;134.73;125.30;;;5.70;99.90;;;;;;12333683;28;20137;-35
2023/12/20 16:20:57;;;;;;;144.20;134.38;;;5.70;99.90;;;;;;12361950;28;20046;-35
2023/12/20 16:26:59;;;;;;;141.07;131.45;;;5.70;99.90;;;;;;12327277;28;20138;-34
2023/12/20 16:33:02;;;;;;;142.25;132.65;;;5.80;99.90;;;;;;12354587;28;20055;-35
2023/12/20 16:39:04;;;;;;;139.57;129.77;;;5.70;99.90;;;;;;12340081;28;20511;-34
2023/12/20 16:45:06;;;;;;;145.30;135.40;;;5.80;99.90;;;;;;12329137;28;20101;-35
2023/12/20 16:51:08;;;;;;;142.95;133.38;;;5.90;99.90;;;;;;12351191;28;20050;-35
2023/12/20 16:57:10;;;;;;;152.35;142.23;;;5.90;99.90;;;;;;12338001;28;20050;-34
2023/12/20 17:03:12;;;;;;;149.15;139.35;;;5.90;99.90;;;;;;12321447;28;20058;-34
2023/12/20 17:09:15;;;;;;;134.77;125.68;;;6.00;99.90;;;;;;12335448;28;20064;-35
2023/12/20 17:15:17;;;;;;;126.47;117.85;;;6.10;99.90;;;;;;12329592;28;20097;-35
2023/12/20 17:21:21;;;;;;;123.57;115.20;;;6.30;99.90;;;;;;12321612;28;20455;-34
2023/12/20 17:27:23;;;;;;;124.82;116.40;;;6.40;99.90;;;;;;12323020;28;20057;-34
2023/12/20 17:33:24;;;;;;;125.97;117.28;;;6.50;99.90;;;;;;12297081;28;20059;-35
2023/12/20 17:39:26;;;;;;;116.10;108.03;;;6.50;99.90;;;;;;12306482;28;20099;-34
2023/12/20 17:45:28;;;;;;;117.93;109.82;;;6.50;99.90;;;;;;12324135;28;20061;-35
2023/12/20 17:51:30;;;;;;;132.05;122.88;;;6.60;99.90;;;;;;12315375;28;20051;-34
2023/12/20 17:57:32;;;;;;;140.70;131.13;;;6.50;99.90;;;;;;12298894;28;20057;-34
2023/12/20 18:03:34;;;;;;;165.30;154.05;;;6.40;99.90;;;;;;12319812;28;20118;-35
2023/12/20 18:09:36;;;;;;;171.05;159.65;;;6.50;99.90;;;;;;12324262;28;20129;-34
2023/12/20 18:15:38;;;;;;;181.05;168.93;;;6.60;99.90;;;;;;12325424;28;20146;-35
2023/12/20 18:21:40;;;;;;;198.02;184.35;;;6.60;99.90;;;;;;12320515;28;20081;-34
2023/12/20 18:27:42;;;;;;;190.43;177.77;;;6.60;99.90;;;;;;12329791;28;20050;-35
2023/12/20 18:33:44;;;;;;;211.68;197.30;;;6.60;99.90;;;;;;12382811;28;20129;-35
2023/12/20 18:39:46;;;;;;;210.35;195.98;;;6.60;99.90;;;;;;12339426;28;20051;-34
2023/12/20 18:45:49;;;;;;;233.25;217.30;;;6.60;99.90;;;;;;12337166;28;20495;-35
2023/12/20 18:51:51;;;;;;;223.25;208.05;;;6.50;99.90;;;;;;12347110;28;20173;-34
2023/12/20 18:57:53;;;;;;;218.07;203.40;;;6.50;99.90;;;;;;12331632;28;20065;-34
2023/12/20 19:03:55;;;;;;;217.55;202.55;;;6.70;99.90;;;;;;12338021;28;20043;-35
2023/12/20 19:09:57;;;;;;;230.82;215.02;;;6.60;99.90;;;;;;12334237;28;20059;-35
2023/12/20 19:16:00;;;;;;;233.07;217.60;;;6.60;99.90;;;;;;12338880;28;20051;-35
2023/12/20 19:22:03;;;;;;;258.90;241.73;;;6.60;99.90;;;;;;12351034;28;20066;-35
2023/12/20 19:28:05;;;;;;;262.30;245.27;;;6.50;99.90;;;;;;12341480;28;20057;-34
2023/12/20 19:34:07;;;;;;;269.75;252.70;;;6.50;99.90;;;;;;12360317;28;20069;-35
2023/12/20 19:40:10;;;;;;;284.08;265.52;;;6.50;99.90;;;;;;12335281;28;20679;-35
2023/12/20 19:46:12;;;;;;;282.38;264.48;;;6.60;99.90;;;;;;12323844;28;21255;-35
2023/12/20 19:52:15;;;;;;;290.40;272.02;;;6.50;99.90;;;;;;12328486;28;20047;-34
2023/12/20 19:58:16;;;;;;;275.58;258.05;;;6.50;99.90;;;;;;12322405;28;20403;-35
2023/12/20 20:04:18;;;;;;;263.55;246.57;;;6.50;99.90;;;;;;12336110;28;20047;-35
2023/12/20 20:10:20;;;;;;;293.88;275.40;;;6.60;99.90;;;;;;12327696;28;20055;-34
2023/12/20 20:16:23;;;;;;;297.85;279.02;;;6.60;99.90;;;;;;12344110;28;20410;-35
2023/12/20 20:22:25;;;;;;;289.48;271.02;;;6.60;99.90;;;;;;12328579;28;20065;-35
2023/12/20 20:28:28;;;;;;;275.85;258.20;;;6.70;99.90;;;;;;12329220;28;20050;-35
2023/12/20 20:34:30;;;;;;;290.58;272.42;;;6.60;99.90;;;;;;12358637;28;20055;-35
2023/12/20 20:40:32;;;;;;;294.45;276.02;;;6.70;99.90;;;;;;12318891;28;20188;-35
2023/12/20 20:46:34;;;;;;;272.27;254.93;;;6.70;99.90;;;;;;12326323;28;20059;-35
2023/12/20 20:52:36;;;;;;;266.38;249.45;;;6.80;99.90;;;;;;12301666;28;20407;-35
2023/12/20 20:58:38;;;;;;;270.55;253.20;;;6.80;99.90;;;;;;12311779;28;20054;-35
2023/12/20 21:04:40;;;;;;;285.25;267.27;;;6.90;99.90;;;;;;12323163;28;20051;-35
2023/12/20 21:10:44;;;;;;;305.15;285.75;;;6.90;99.90;;;;;;12315162;28;20479;-35
2023/12/20 21:16:45;;;;;;;314.50;294.67;;;6.90;99.90;;;;;;12320407;28;20061;-35
2023/12/20 21:22:47;;;;;;;351.52;329.25;;;7.00;99.90;;;;;;12354328;28;20062;-35
2023/12/20 21:28:49;;;;;;;357.00;334.67;;;7.10;99.90;;;;;;12320377;28;20086;-35
2023/12/20 21:34:51;;;;;;;369.17;346.35;;;7.00;99.90;;;;;;12325267;28;20063;-34
2023/12/20 21:40:53;;;;;;;362.92;340.45;;;7.00;99.90;;;;;;12335484;28;20272;-35
2023/12/20 21:46:56;;;;;;;361.77;339.38;;;7.10;99.90;;;;;;12341364;28;20193;-35
2023/12/20 21:52:58;;;;;;;366.42;343.77;;;7.10;99.90;;;;;;12347656;28;20055;-35
2023/12/20 21:59:00;;;;;;;362.20;339.88;;;7.10;99.90;;;;;;12337425;28;20065;-35
2023/12/20 22:05:02;;;;;;;344.98;324.20;;;7.10;99.90;;;;;;12334794;28;20130;-35
2023/12/20 22:11:04;;;;;;;323.55;303.95;;;7.10;99.90;;;;;;12331232;28;20047;-35
2023/12/20 22:17:06;;;;;;;331.30;311.23;;;7.20;99.90;;;;;;12329551;28;20115;-35
2023/12/20 22:23:08;;;;;;;376.17;352.75;;;7.30;99.90;;;;;;12371813;28;20039;-35
2023/12/20 22:29:10;;;;;;;416.20;390.35;;;7.40;99.90;;;;;;12345163;28;20116;-35
2023/12/20 22:35:12;;;;;;;464.60;435.45;;;7.40;99.90;;;;;;12351932;28;20055;-35
2023/12/20 22:41:14;;;;;;;500.73;469.40;;;7.40;99.90;;;;;;12333906;28;20055;-35
2023/12/20 22:47:16;;;;;;;513.35;481.08;;;7.50;99.90;;;;;;12336196;28;20415;-35
2023/12/20 22:53:18;;;;;;;511.52;479.77;;;7.50;99.90;;;;;;12338131;28;20576;-35
2023/12/20 22:59:20;;;;;;;551.15;516.38;;;7.50;99.90;;;;;;12333967;28;20043;-35
2023/12/20 23:05:22;;;;;;;545.70;510.98;;;7.50;99.90;;;;;;12324779;28;20051;-34
2023/12/20 23:11:24;;;;;;;553.38;518.05;;;7.60;99.90;;;;;;12333945;28;20059;-35
2023/12/20 23:17:26;;;;;;;546.35;511.52;;;7.60;99.90;;;;;;12343705;28;20048;-35
2023/12/20 23:23:28;;;;;;;553.17;517.95;;;7.60;99.90;;;;;;12357172;28;20503;-34
2023/12/20 23:29:30;;;;;;;545.40;510.63;;;7.60;99.90;;;;;;12332972;28;20089;-34
2023/12/20 23:35:32;;;;;;;575.58;539.03;;;7.60;99.90;;;;;;12333199;28;20082;-34
2023/12/20 23:41:34;;;;;;;582.20;545.13;;;7.60;99.90;;;;;;12319979;28;20085;-35
2023/12/20 23:47:36;;;;;;;593.72;555.83;;;7.70;99.90;;;;;;12328648;28;20051;-34
2023/12/20 23:53:38;;;;;;;587.15;549.38;;;7.70;99.90;;;;;;12320723;28;20051;-35
2023/12/20 23:59:40;;;;;;;598.33;559.88;;;7.70;99.90;;;;;;12326882;28;20138;-35
